Time;durP1;ratioP1;P1;durP2;ratioP2;P2;SDS_P1;SDS_P2;PMS_P1;PMS_P2;Temp;Humidity;BMP_temperature;BMP_pressure;BME280_temperature;BME280_humidity;BME280_pressure;Samples;Min_cycle;Max_cycle;Signal;HPM_P1;HPM_P2
2021/03/08 00:00:35;;;;;;;89.93;53.80;;;;;;;3.96;83.72;102544.50;4947599;29;20035;-86
2021/03/08 00:03:04;;;;;;;88.38;55.15;;;;;;;3.92;83.48;102529.41;4949355;28;20039;-88
2021/03/08 00:05:31;;;;;;;87.05;57.20;;;;;;;3.54;82.71;102501.41;4950596;28;20035;-87
2021/03/08 00:07:58;;;;;;;93.53;58.60;;;;;;;2.64;83.30;102325.38;4975029;28;20029;-88
2021/03/08 00:10:37;;;;;;;98.07;58.35;;;;;;;3.59;83.97;102482.63;4957562;28;20093;-87
2021/03/08 00:13:04;;;;;;;99.32;61.13;;;;;;;2.65;83.15;102294.28;4957786;28;20050;-89
2021/03/08 00:15:31;;;;;;;94.03;59.70;;;;;;;4.30;82.81;102545.56;4958998;28;20030;-88
2021/03/08 00:17:58;;;;;;;103.88;62.35;;;;;;;3.47;83.53;102426.38;4969993;28;20023;-87
2021/03/08 00:20:27;;;;;;;107.55;61.78;;;;;;;3.61;83.25;102423.03;4957542;28;20110;-89
2021/03/08 00:22:55;;;;;;;103.05;64.15;;;;;;;4.28;83.26;102552.22;4961674;28;20026;-89
2021/03/08 00:25:31;;;;;;;91.35;58.88;;;;;;;4.30;81.90;102518.13;4957982;28;20033;-88
2021/03/08 00:27:59;;;;;;;98.65;58.63;;;;;;;4.51;82.24;102505.84;4957994;28;20090;-89
2021/03/08 00:30:27;;;;;;;113.93;66.40;;;;;;;4.75;82.58;102546.22;4957576;28;20038;-88
2021/03/08 00:32:54;;;;;;;111.35;64.68;;;;;;;4.72;81.39;102538.34;4957874;28;20418;-88
2021/03/08 00:35:24;;;;;;;110.10;64.63;;;;;;;4.19;81.44;102419.69;4956903;28;20411;-88
2021/03/08 00:37:51;;;;;;;107.13;63.60;;;;;;;4.45;81.39;102419.59;4974791;28;20459;-89
2021/03/08 00:40:21;;;;;;;118.72;68.22;;;;;;;5.05;80.27;102532.91;4955983;28;20034;-88
2021/03/08 00:42:49;;;;;;;119.82;72.07;;;;;;;5.04;80.95;102542.19;4973151;28;20066;-88
2021/03/08 00:45:18;;;;;;;116.78;70.55;;;;;;;5.14;80.09;102538.41;4956886;28;20030;-86
2021/03/08 00:47:46;;;;;;;121.73;72.07;;;;;;;4.69;80.41;102481.03;4957148;28;20082;-86
2021/03/08 00:50:16;;;;;;;131.45;73.57;;;;;;;3.88;79.90;102325.22;4957397;28;20031;-87
2021/03/08 00:52:43;;;;;;;;;;;;;;;4.95;80.98;102548.69;4958945;28;20030;-88
2021/03/08 00:55:12;;;;;;;137.00;77.85;;;;;;;4.98;80.51;102542.84;4975128;28;19914;-87
2021/03/08 00:57:39;;;;;;;144.88;76.63;;;;;;;3.97;80.88;102439.34;4973318;28;20062;-88
2021/03/08 01:00:09;;;;;;;150.63;82.15;;;;;;;5.01;81.21;102553.53;4956638;28;20077;-89
2021/03/08 01:02:37;;;;;;;156.93;82.05;;;;;;;4.92;80.53;102549.00;4959198;28;20042;-85
2021/03/08 01:05:05;;;;;;;155.70;86.90;;;;;;;3.74;81.97;102386.13;4959769;28;20594;-87
2021/03/08 01:07:32;;;;;;;150.43;83.10;;;;;;;4.49;82.35;102478.59;4960371;28;20054;-87
2021/03/08 01:10:00;;;;;;;161.02;84.20;;;;;;;4.69;80.98;102500.25;4958218;28;20078;-87
2021/03/08 01:12:27;;;;;;;159.68;90.35;;;;;;;4.99;81.04;102549.22;4958312;28;20054;-87
2021/03/08 01:14:55;;;;;;;152.95;84.60;;;;;;;5.06;80.62;102545.63;4958120;28;20046;-87
2021/03/08 01:17:22;;;;;;;142.90;80.55;;;;;;;3.64;80.00;102293.97;4981067;28;20030;-86
2021/03/08 01:19:49;;;;;;;152.40;82.75;;;;;;;4.96;80.09;102531.19;4968167;28;20035;-86
2021/03/08 01:22:19;;;;;;;152.82;85.95;;;;;;;4.84;81.18;102525.16;4956120;28;20014;-86
2021/03/08 01:24:46;;;;;;;161.02;88.93;;;;;;;4.36;81.17;102434.34;4966634;28;20077;-87
2021/03/08 01:27:13;;;;;;;158.48;88.45;;;;;;;4.06;81.64;102368.09;4993562;28;20038;-87
2021/03/08 01:29:40;;;;;;;162.32;85.15;;;;;;;4.73;81.61;102438.53;4975768;28;20128;-85
2021/03/08 01:32:07;;;;;;;152.85;87.70;;;;;;;4.98;80.76;102520.91;4953101;28;20059;-87
2021/03/08 01:34:34;;;;;;;150.48;88.95;;;;;;;5.13;81.53;102564.16;4958467;28;20042;-87
2021/03/08 01:37:01;;;;;;;152.60;85.80;;;;;;;4.86;81.07;102545.06;4976100;28;20542;-87
2021/03/08 01:39:28;;;;;;;147.52;87.90;;;;;;;4.12;80.09;102367.44;4949785;28;20129;-86
2021/03/08 01:41:55;;;;;;;148.88;83.47;;;;;;;4.47;78.90;102390.13;4955718;28;20127;-87
2021/03/08 01:44:22;;;;;;;150.93;86.68;;;;;;;4.48;79.48;102438.50;4955691;28;20085;-87
2021/03/08 01:46:50;;;;;;;161.85;89.35;;;;;;;4.69;81.15;102530.44;4951746;28;20130;-88
2021/03/08 01:49:16;;;;;;;157.43;86.43;;;;;;;3.82;81.83;102408.94;4955809;28;20090;-86
2021/03/08 01:51:44;;;;;;;145.77;83.47;;;;;;;4.37;82.19;102541.13;4959427;28;20027;-88
2021/03/08 01:54:12;;;;;;;153.50;84.88;;;;;;;3.17;81.08;102297.19;4971351;28;20022;-87
2021/03/08 01:56:39;;;;;;;148.70;87.20;;;;;;;2.52;82.14;102229.06;4960181;28;20027;-87
2021/03/08 01:59:06;;;;;;;161.63;89.90;;;;;;;3.67;83.56;102438.84;4956409;28;20058;-87
2021/03/08 02:01:33;;;;;;;151.07;87.10;;;;;;;4.29;81.43;102444.25;4954644;28;20035;-87
2021/03/08 02:04:00;;;;;;;141.65;83.78;;;;;;;4.21;80.66;102396.59;4955068;28;20721;-87
2021/03/08 02:06:28;;;;;;;157.02;86.18;;;;;;;4.27;79.94;102408.75;4960643;28;20383;-89
2021/03/08 02:08:55;;;;;;;145.80;83.75;;;;;;;3.29;81.00;102277.56;4963733;28;20018;-86
2021/03/08 02:11:22;;;;;;;147.60;87.43;;;;;;;5.09;80.29;102532.56;4956178;28;20500;-84
2021/03/08 02:14:12;;;;;;;147.60;87.28;;;;;;;5.36;79.13;102505.81;4952459;29;20082;-87
2021/03/08 02:17:04;;;;;;;137.95;83.85;;;;;;;4.33;79.74;102368.88;4923489;28;20188;-86
2021/03/08 02:20:18;;;;;;;149.25;85.82;;;;;;;5.15;78.88;102460.50;4963745;28;20055;-86
2021/03/08 02:22:54;;;;;;;150.40;86.90;;;;;;;5.57;78.24;102503.41;4935933;28;20399;-87
2021/03/08 02:25:50;;;;;;;145.80;92.38;;;;;;;5.32;77.42;102439.38;4963894;28;20039;-88
2021/03/08 02:28:38;;;;;;;151.10;91.57;;;;;;;5.83;76.05;102502.31;4953817;29;20079;-86
2021/03/08 02:31:14;;;;;;;158.63;93.88;;;;;;;5.02;77.01;102434.44;4954313;28;20063;-85
2021/03/08 02:33:45;;;;;;;166.65;96.72;;;;;;;4.51;79.26;102467.44;4955447;28;20138;-87
2021/03/08 02:36:14;;;;;;;156.82;92.47;;;;;;;4.08;80.09;102437.31;4937631;28;20110;-87
2021/03/08 02:38:47;;;;;;;161.50;88.85;;;;;;;3.94;79.58;102349.19;4943247;28;20043;-87
2021/03/08 02:41:22;;;;;;;135.60;83.32;;;;;;;4.47;78.97;102442.22;4972855;28;20040;-88
2021/03/08 02:44:00;;;;;;;143.35;84.03;;;;;;;4.79;79.67;102502.84;4972221;28;20039;-86
2021/03/08 02:46:31;;;;;;;140.73;84.72;;;;;;;4.99;79.11;102495.16;4954392;28;20035;-86
2021/03/08 02:49:03;;;;;;;140.38;84.68;;;;;;;4.52;77.68;102406.09;4953235;28;20031;-87
2021/03/08 02:51:34;;;;;;;136.75;82.78;;;;;;;4.04;78.42;102318.09;4969688;28;20117;-88
2021/03/08 02:54:03;;;;;;;137.70;80.88;;;;;;;5.45;76.26;102430.63;4971995;28;20034;-87
2021/03/08 02:56:34;;;;;;;134.73;79.00;;;;;;;4.74;74.85;102316.75;4955262;29;20064;-87
2021/03/08 02:59:05;;;;;;;124.97;75.50;;;;;;;6.16;74.00;102490.41;4961879;28;20095;-87
2021/03/08 03:01:36;;;;;;;143.00;86.45;;;;;;;6.01;73.37;102471.03;4973448;28;20034;-87
2021/03/08 03:04:05;;;;;;;128.07;85.90;;;;;;;5.64;75.24;102480.75;4962021;28;20027;-85
2021/03/08 03:06:36;;;;;;;166.70;89.57;;;;;;;5.39;74.53;102423.06;4952838;28;20058;-87
2021/03/08 03:09:07;;;;;;;;;;;;;;;5.96;75.86;102465.19;4948771;28;20012;-87
2021/03/08 03:11:37;;;;;;;134.82;78.95;;;;;;;5.94;72.89;102459.88;4934234;29;20316;-87
2021/03/08 03:14:04;;;;;;;137.55;84.28;;;;;;;5.42;72.52;102360.38;4944552;28;20062;-87
2021/03/08 03:16:32;;;;;;;138.93;85.60;;;;;;;5.94;71.17;102448.03;4955834;28;20042;-87
2021/03/08 03:19:01;;;;;;;133.60;82.40;;;;;;;5.38;72.28;102432.34;4956432;28;20011;-87
2021/03/08 03:21:31;;;;;;;132.63;80.43;;;;;;;4.96;72.52;102333.56;4956331;28;20491;-88
2021/03/08 03:24:00;;;;;;;119.75;80.78;;;;;;;6.01;69.77;102438.88;4956620;28;20045;-87
2021/03/08 03:26:30;;;;;;;125.65;75.10;;;;;;;5.49;68.64;102338.59;4957562;28;20154;-88
2021/03/08 03:28:58;;;;;;;111.70;72.32;;;;;;;5.75;67.61;102331.94;4957250;28;20054;-86
2021/03/08 03:31:26;;;;;;;102.88;66.20;;;;;;;4.50;66.07;102090.81;4977989;28;20436;-87
2021/03/08 03:33:55;;;;;;;121.53;71.75;;;;;;;6.03;64.66;102337.00;4971360;28;20030;-86
2021/03/08 03:36:24;;;;;;;109.00;68.13;;;;;;;5.89;64.78;102267.97;4969376;28;20026;-87
2021/03/08 03:38:53;;;;;;;108.85;67.05;;;;;;;5.97;67.83;102316.56;4958294;28;20030;-86
2021/03/08 03:41:20;;;;;;;101.38;67.38;;;;;;;6.05;67.95;102326.66;4958403;28;20049;-85
2021/03/08 03:43:47;;;;;;;100.68;62.45;;;;;;;5.53;67.00;102209.97;4958660;28;20045;-86
2021/03/08 03:46:14;;;;;;;105.32;61.58;;;;;;;6.90;66.44;102387.28;4957429;28;20027;-86
2021/03/08 03:48:42;;;;;;;96.63;61.67;;;;;;;6.83;66.36;102387.19;4957805;28;20031;-87
2021/03/08 03:51:09;;;;;;;103.05;63.83;;;;;;;6.02;66.70;102272.06;4957680;28;20030;-85
2021/03/08 03:53:36;;;;;;;99.13;63.10;;;;;;;6.34;65.97;102289.34;4957473;28;20101;-87
2021/03/08 03:56:08;;;;;;;90.47;58.67;;;;;;;6.26;66.17;102320.53;4957741;28;20121;-87
2021/03/08 03:58:41;;;;;;;92.32;59.55;;;;;;;6.24;65.50;102269.50;4958063;28;20491;-85
2021/03/08 04:01:18;;;;;;;103.18;62.35;;;;;;;7.00;65.16;102372.44;4961064;28;20035;-86
2021/03/08 04:04:19;;;;;;;95.40;60.08;;;;;;;5.96;62.90;102182.00;4945853;28;20041;-86
2021/03/08 04:06:49;;;;;;;91.53;56.88;;;;;;;6.03;62.58;102172.03;4928414;28;20468;-87
2021/03/08 04:09:24;;;;;;;93.85;58.63;;;;;;;5.31;62.20;101993.63;4957356;28;20041;-87
2021/03/08 04:11:54;;;;;;;92.35;58.08;;;;;;;7.61;61.93;102352.16;4957938;28;20019;-88
2021/03/08 04:14:24;;;;;;;96.97;57.97;;;;;;;6.34;61.52;102165.56;4957313;28;20050;-87
2021/03/08 04:16:55;;;;;;;88.95;54.10;;;;;;;6.82;61.70;102263.47;4956675;28;20038;-88
2021/03/08 04:19:25;;;;;;;85.82;53.72;;;;;;;6.57;60.79;102190.28;4957543;28;20026;-87
2021/03/08 04:21:59;;;;;;;79.77;54.07;;;;;;;7.02;60.46;102250.00;4956943;28;20043;-86
2021/03/08 04:24:28;;;;;;;91.05;54.67;;;;;;;6.62;60.49;102206.22;4956817;28;20053;-87
2021/03/08 04:26:58;;;;;;;83.13;54.75;;;;;;;7.20;61.01;102324.00;4956870;28;20031;-87
2021/03/08 04:29:25;;;;;;;71.28;42.88;;;;;;;7.06;62.33;102346.88;4954633;28;20014;-87
2021/03/08 04:31:52;;;;;;;85.07;53.15;;;;;;;6.59;61.75;102266.28;4948186;28;20035;-87
2021/03/08 04:34:19;;;;;;;79.70;50.00;;;;;;;6.59;61.24;102256.13;4955501;28;20027;-86
2021/03/08 04:36:47;;;;;;;79.40;51.05;;;;;;;7.29;60.49;102327.53;4956587;28;20034;-86
2021/03/08 04:39:15;;;;;;;86.43;50.63;;;;;;;7.31;59.40;102308.06;4976700;28;20083;-87
2021/03/08 04:41:43;;;;;;;84.60;51.08;;;;;;;6.76;59.29;102264.25;4958432;28;20462;-88
2021/03/08 04:44:11;;;;;;;74.50;48.13;;;;;;;6.43;58.32;102149.84;4958589;28;20026;-87
2021/03/08 04:46:39;;;;;;;79.07;50.53;;;;;;;6.67;58.62;102180.88;4981986;28;20030;-86
2021/03/08 04:49:07;;;;;;;82.70;48.42;;;;;;;6.13;57.64;102090.13;4963645;28;20027;-85
2021/03/08 04:51:43;;;;;;;81.35;47.35;;;;;;;7.14;58.04;102261.41;4963729;28;20034;-87
2021/03/08 04:54:10;;;;;;;77.90;47.65;;;;;;;7.48;59.21;102300.47;4961707;28;20062;-87
2021/03/08 04:56:38;;;;;;;80.53;46.58;;;;;;;6.87;58.08;102196.81;4955107;28;20089;-86
2021/03/08 04:59:05;;;;;;;74.70;46.88;;;;;;;6.63;59.32;102199.66;4961019;28;20030;-86
2021/03/08 05:01:34;;;;;;;70.47;42.47;;;;;;;6.89;57.67;102313.97;4960257;28;20086;-86
2021/03/08 05:04:04;;;;;;;63.53;41.10;;;;;;;6.72;58.04;102299.53;4960413;28;20034;-86
2021/03/08 05:06:32;;;;;;;77.93;47.20;;;;;;;6.67;59.85;102299.22;4960763;28;20066;-86
2021/03/08 05:09:01;;;;;;;93.75;50.92;;;;;;;6.20;60.41;102216.75;4956063;28;20015;-85
2021/03/08 05:11:30;;;;;;;64.30;41.67;;;;;;;5.63;59.71;102110.81;4946664;28;20062;-85
2021/03/08 05:13:58;;;;;;;68.93;44.05;;;;;;;6.40;58.54;102194.22;4953365;28;20505;-87
2021/03/08 05:16:26;;;;;;;69.13;41.72;;;;;;;7.10;58.52;102274.72;4949707;28;20031;-87
2021/03/08 05:18:53;;;;;;;73.28;44.50;;;;;;;6.43;58.81;102142.41;4951141;28;20548;-86
2021/03/08 05:21:22;;;;;;;68.30;40.80;;;;;;;6.38;59.06;102125.63;4949339;28;20037;-87
2021/03/08 05:23:49;;;;;;;69.88;40.50;;;;;;;6.88;58.50;102248.94;4951208;28;20039;-87
2021/03/08 05:26:16;;;;;;;68.95;39.35;;;;;;;6.79;59.65;102253.69;4953129;28;20519;-88
2021/03/08 05:28:44;;;;;;;71.32;42.60;;;;;;;6.26;60.07;102144.50;4950426;28;20027;-87
2021/03/08 05:31:12;;;;;;;76.22;47.60;;;;;;;6.11;61.85;102155.44;4950357;28;20105;-87
2021/03/08 05:33:42;;;;;;;95.07;55.42;;;;;;;6.01;63.93;102168.59;4947560;28;20027;-87
2021/03/08 05:36:10;;;;;;;76.32;49.10;;;;;;;6.28;63.49;102213.94;4947138;28;20035;-86
2021/03/08 05:38:39;;;;;;;83.50;52.75;;;;;;;5.02;64.36;101980.63;4948156;28;20153;-87
2021/03/08 05:41:24;;;;;;;90.90;51.17;;;;;;;5.77;64.68;102129.25;4948457;28;20450;-86
2021/03/08 05:43:54;;;;;;;80.63;49.60;;;;;;;6.28;64.50;102213.06;4949537;28;20295;-88
2021/03/08 05:46:45;;;;;;;72.30;44.20;;;;;;;6.41;64.13;102251.81;4951883;28;20063;-87
2021/03/08 05:49:34;;;;;;;79.50;44.78;;;;;;;6.44;65.07;102245.09;4966521;28;20035;-85
2021/03/08 05:52:31;;;;;;;69.63;40.78;;;;;;;6.64;63.39;102242.66;4967899;28;20031;-87
2021/03/08 05:55:13;;;;;;;72.10;39.60;;;;;;;6.65;62.14;102244.34;4963270;28;20422;-88
2021/03/08 05:57:46;;;;;;;69.95;43.67;;;;;;;6.74;61.90;102241.53;4946367;29;20031;-85
2021/03/08 06:00:35;;;;;;;58.72;39.58;;;;;;;6.75;61.53;102230.34;4953122;28;20030;-86
2021/03/08 06:03:20;;;;;;;72.97;40.05;;;;;;;7.03;60.19;102226.06;4948686;28;20481;-86
2021/03/08 06:06:14;;;;;;;73.45;40.45;;;;;;;7.26;58.30;102221.31;4951076;28;20024;-87
2021/03/08 06:09:19;;;;;;;64.63;36.38;;;;;;;7.01;57.63;102184.13;4951525;28;20132;-86
2021/03/08 06:12:06;;;;;;;68.88;39.80;;;;;;;6.21;57.13;102038.81;4952032;28;20031;-87
2021/03/08 06:14:46;;;;;;;55.75;37.35;;;;;;;6.39;56.82;102025.56;4960917;28;20436;-86
2021/03/08 06:17:18;;;;;;;56.17;36.65;;;;;;;7.65;56.78;102207.34;4952670;28;20069;-85
2021/03/08 06:19:46;;;;;;;53.92;31.92;;;;;;;6.71;56.32;102064.72;4953406;28;20542;-85
2021/03/08 06:22:15;;;;;;;74.60;38.78;;;;;;;7.50;56.99;102246.00;4954648;28;20809;-86
2021/03/08 06:24:44;;;;;;;55.83;35.22;;;;;;;6.27;56.41;101991.31;4957256;28;20085;-85
2021/03/08 06:27:13;;;;;;;65.85;35.75;;;;;;;7.66;56.13;102190.63;4954974;28;20031;-84
2021/03/08 06:29:42;;;;;;;58.08;34.95;;;;;;;6.76;55.02;102068.78;4954349;28;20137;-86
2021/03/08 06:32:10;;;;;;;57.92;33.00;;;;;;;7.53;55.80;102229.06;4955761;28;20031;-87
2021/03/08 06:34:39;;;;;;;55.55;33.65;;;;;;;7.61;55.72;102230.88;4955448;28;20035;-86
2021/03/08 06:37:11;;;;;;;52.30;34.05;;;;;;;7.42;54.93;102180.81;4964301;28;20547;-86
2021/03/08 06:39:40;;;;;;;60.70;32.35;;;;;;;6.77;56.28;102087.00;4956415;28;20034;-85
2021/03/08 06:42:08;;;;;;;63.92;30.25;;;;;;;6.85;54.14;102115.28;4957198;28;20098;-85
2021/03/08 06:44:35;;;;;;;53.80;29.48;;;;;;;7.80;53.91;102246.78;4966699;28;20038;-85
2021/03/08 06:47:05;;;;;;;50.42;29.63;;;;;;;7.32;55.00;102214.16;4969659;28;20098;-85
2021/03/08 06:49:33;;;;;;;49.88;28.85;;;;;;;6.92;54.72;102192.47;4955671;28;20023;-86
2021/03/08 06:52:12;;;;;;;47.15;27.75;;;;;;;7.13;55.12;102171.53;4955833;28;20073;-86
2021/03/08 06:54:41;;;;;;;51.00;28.23;;;;;;;7.58;54.93;102256.91;4957242;28;20023;-86
2021/03/08 06:57:28;;;;;;;53.38;28.48;;;;;;;7.71;54.50;102250.69;4954543;28;20093;-79
2021/03/08 06:59:57;;;;;;;43.65;27.95;;;;;;;7.48;54.19;102228.81;4967244;28;20034;-78
2021/03/08 07:02:41;;;;;;;43.63;26.15;;;;;;;7.37;52.28;102153.84;4973262;28;20404;-85
2021/03/08 07:05:26;;;;;;;47.03;27.60;;;;;;;6.20;52.29;101962.88;4954225;28;20502;-90
2021/03/08 07:08:00;;;;;;;42.40;25.60;;;;;;;7.68;52.00;102245.59;4959976;28;20033;-92
2021/03/08 07:10:42;;;;;;;38.50;24.27;;;;;;;7.80;52.55;102240.41;4956238;28;20082;-91
2021/03/08 07:13:12;;;;;;;34.50;23.25;;;;;;;7.44;52.03;102217.31;4960508;28;20034;-92
2021/03/08 07:16:02;;;;;;;42.20;22.98;;;;;;;7.65;51.93;102246.81;4952521;28;20027;-89
2021/03/08 07:18:30;;;;;;;38.67;23.27;;;;;;;7.79;52.16;102260.78;4963030;28;20070;-90
2021/03/08 07:21:17;;;;;;;37.22;21.98;;;;;;;7.43;52.60;102273.44;4972278;28;20030;-90
2021/03/08 07:23:46;;;;;;;45.30;24.95;;;;;;;6.85;53.10;102186.03;4970637;28;20039;-89
2021/03/08 07:26:16;;;;;;;35.75;22.30;;;;;;;7.37;53.38;102217.22;4971140;28;20023;-88
2021/03/08 07:28:44;;;;;;;44.23;22.70;;;;;;;7.44;54.11;102269.69;4970497;28;20036;-88
2021/03/08 07:31:35;;;;;;;44.25;22.90;;;;;;;7.67;54.54;102246.63;4965922;28;20271;-90
2021/03/08 07:34:04;;;;;;;40.00;24.50;;;;;;;5.41;55.69;101912.88;4972823;28;20038;-86
2021/03/08 07:36:31;;;;;;;55.47;24.90;;;;;;;7.77;55.11;102244.41;4970633;28;20416;-86
2021/03/08 07:38:58;;;;;;;36.58;22.52;;;;;;;7.92;55.54;102230.56;4973913;28;20027;-86
2021/03/08 07:41:25;;;;;;;42.40;23.58;;;;;;;7.95;55.52;102240.34;4978453;28;20073;-86
2021/03/08 07:44:06;;;;;;;40.95;22.73;;;;;;;6.39;55.84;101997.19;4973164;28;20043;-86
2021/03/08 07:46:37;;;;;;;36.83;21.88;;;;;;;7.72;54.95;102230.34;4970616;28;20030;-86
2021/03/08 07:49:08;;;;;;;44.42;23.48;;;;;;;6.95;55.12;102094.88;4977754;28;20026;-86
2021/03/08 07:51:35;;;;;;;37.60;22.38;;;;;;;7.09;55.00;102090.38;4980923;28;20291;-83
2021/03/08 07:54:04;;;;;;;48.40;22.40;;;;;;;6.62;54.50;102013.56;4974659;28;20445;-83
2021/03/08 07:56:32;;;;;;;40.08;21.58;;;;;;;6.59;55.36;102033.19;4983155;28;20035;-86
2021/03/08 07:59:00;;;;;;;39.60;22.08;;;;;;;6.93;55.60;102092.31;4986907;28;20061;-85
2021/03/08 08:01:27;;;;;;;32.97;20.75;;;;;;;7.92;55.20;102227.81;4980117;28;20031;-86
2021/03/08 08:03:54;;;;;;;37.85;21.85;;;;;;;7.48;56.02;102173.69;4976844;28;20039;-87
2021/03/08 08:06:26;;;;;;;40.45;22.08;;;;;;;7.77;55.05;102221.50;4974726;28;20407;-86
2021/03/08 08:08:55;;;;;;;37.25;21.65;;;;;;;6.98;55.70;102136.66;4974230;28;20023;-87
2021/03/08 08:11:26;;;;;;;46.63;22.88;;;;;;;7.30;56.85;102161.16;4974020;28;20035;-86
2021/03/08 08:14:02;;;;;;;39.35;22.08;;;;;;;5.67;58.58;101961.00;4965549;28;20057;-85
2021/03/08 08:16:33;;;;;;;37.78;23.73;;;;;;;6.21;58.17;102075.44;4993856;28;20042;-85
2021/03/08 08:19:09;;;;;;;42.22;23.77;;;;;;;6.58;57.52;102133.31;4987947;28;20050;-86
2021/03/08 08:21:42;;;;;;;48.67;24.70;;;;;;;7.28;58.34;102234.91;4989577;28;20019;-85
2021/03/08 08:24:27;;;;;;;37.75;23.52;;;;;;;6.70;58.24;102139.19;4991184;28;20069;-84
2021/03/08 08:26:56;;;;;;;40.17;23.10;;;;;;;6.81;57.27;102163.53;4985716;28;20042;-83
2021/03/08 08:29:33;;;;;;;37.03;22.23;;;;;;;6.52;55.34;102085.41;4986773;28;20520;-83
2021/03/08 08:32:02;;;;;;;36.17;22.35;;;;;;;6.88;57.14;102147.06;4982427;28;20182;-83
2021/03/08 08:34:35;;;;;;;36.95;19.92;;;;;;;7.44;55.99;102231.09;4987716;28;20449;-85
2021/03/08 08:37:10;;;;;;;37.13;21.27;;;;;;;6.09;57.56;102025.56;4978560;28;20065;-86
2021/03/08 08:39:37;;;;;;;37.42;23.95;;;;;;;6.37;58.31;102101.06;4971640;28;20030;-86
2021/03/08 08:42:15;;;;;;;34.15;21.20;;;;;;;6.63;58.79;102168.53;4978669;28;20050;-88
2021/03/08 08:44:44;;;;;;;39.08;23.10;;;;;;;7.30;57.96;102221.78;4979343;28;20041;-86
2021/03/08 08:47:21;;;;;;;33.80;20.13;;;;;;;7.07;57.80;102235.69;4982272;28;20027;-87
2021/03/08 08:49:50;;;;;;;35.35;19.17;;;;;;;6.98;57.08;102233.03;4984214;28;20027;-86
2021/03/08 08:52:37;;;;;;;38.70;20.75;;;;;;;5.40;58.76;101979.81;4981871;28;20559;-85
2021/03/08 08:55:05;;;;;;;38.88;20.23;;;;;;;6.29;59.34;102143.25;4993461;28;20018;-83
2021/03/08 08:57:32;;;;;;;36.20;21.67;;;;;;;5.60;59.90;102019.44;4978935;28;21022;-81
2021/03/08 09:00:21;;;;;;;38.22;23.50;;;;;;;6.94;59.24;102223.41;4980797;28;20023;-86
2021/03/08 09:02:48;;;;;;;42.60;22.88;;;;;;;6.69;59.96;102226.44;4983589;28;20113;-87
2021/03/08 09:05:31;;;;;;;42.20;21.58;;;;;;;6.80;59.26;102232.53;4975949;28;20030;-89
2021/03/08 09:08:23;;;;;;;39.65;21.08;;;;;;;6.57;59.63;102244.44;4975488;28;20077;-90
2021/03/08 09:10:50;;;;;;;37.28;20.80;;;;;;;6.67;59.52;102247.78;4964271;28;20098;-89
2021/03/08 09:13:17;;;;;;;38.22;22.23;;;;;;;6.57;59.59;102248.06;4973176;28;20476;-88
2021/03/08 09:15:44;;;;;;;39.50;23.23;;;;;;;6.39;59.87;102218.13;4974185;28;20038;-87
2021/03/08 09:18:12;;;;;;;36.20;21.02;;;;;;;6.52;59.81;102263.41;4976041;28;20026;-88
2021/03/08 09:20:41;;;;;;;38.80;21.42;;;;;;;5.48;58.85;102103.38;4968902;28;20034;-87
2021/03/08 09:23:23;;;;;;;37.67;21.77;;;;;;;5.15;58.70;102049.50;4971444;28;20492;-86
2021/03/08 09:25:59;;;;;;;39.05;24.33;;;;;;;6.49;58.79;102233.50;4984570;28;20034;-86
2021/03/08 09:28:26;;;;;;;40.17;23.90;;;;;;;5.72;59.10;102142.69;4964429;28;20106;-85
2021/03/08 09:30:53;;;;;;;42.58;23.40;;;;;;;5.91;58.20;102151.47;4968913;28;20057;-85
2021/03/08 09:33:21;;;;;;;40.65;22.15;;;;;;;5.45;57.65;102098.22;4958732;28;20023;-85
2021/03/08 09:35:55;;;;;;;42.85;23.52;;;;;;;6.28;58.50;102224.06;4970634;28;20030;-86
2021/03/08 09:38:24;;;;;;;38.95;22.42;;;;;;;5.82;58.65;102190.00;4977345;28;20022;-86
2021/03/08 09:41:00;;;;;;;36.60;21.63;;;;;;;5.91;58.15;102206.44;4972686;28;20030;-86
2021/03/08 09:46:23;;;;;;;32.67;19.27;;;;;;;5.25;57.54;102134.41;4966776;28;20435;-83
2021/03/08 09:48:55;;;;;;;38.35;21.63;;;;;;;4.12;57.56;101953.53;4970353;28;20034;-83
2021/03/08 09:51:23;;;;;;;39.97;22.60;;;;;;;5.92;57.61;102224.63;4977196;28;20074;-78
2021/03/08 09:53:51;;;;;;;35.83;21.52;;;;;;;5.87;56.67;102239.81;4974472;28;20022;-79
2021/03/08 09:56:24;;;;;;;35.67;21.27;;;;;;;5.55;55.77;102192.25;4970647;28;20023;-81
2021/03/08 09:59:02;;;;;;;40.60;19.25;;;;;;;5.16;53.21;102110.75;4970016;28;20027;-80
2021/03/08 10:01:29;;;;;;;44.63;22.67;;;;;;;5.70;53.63;102200.56;4969768;28;20027;-80
2021/03/08 10:03:57;;;;;;;41.97;20.92;;;;;;;5.61;53.79;102169.53;4974347;28;20034;-80
2021/03/08 10:06:28;;;;;;;34.78;20.83;;;;;;;5.97;53.69;102238.72;4975265;28;20034;-79
2021/03/08 10:08:56;;;;;;;34.85;19.55;;;;;;;5.75;53.93;102235.75;4972587;28;20022;-82
2021/03/08 10:11:28;;;;;;;35.20;19.23;;;;;;;4.79;53.58;102072.00;4974974;28;20037;-80
2021/03/08 10:13:55;;;;;;;34.22;18.20;;;;;;;4.82;53.37;102065.31;4970982;28;20624;-80
2021/03/08 10:16:24;;;;;;;40.42;20.52;;;;;;;5.67;54.08;102216.56;4967193;28;20046;-83
2021/03/08 10:18:53;;;;;;;41.03;24.42;;;;;;;5.86;53.96;102216.09;4970889;28;20027;-80
2021/03/08 10:21:23;;;;;;;35.55;21.58;;;;;;;6.14;54.84;102234.81;4969731;28;20026;-79
2021/03/08 10:23:50;;;;;;;39.70;21.50;;;;;;;4.74;56.68;102060.72;4968030;28;20047;-82
2021/03/08 10:26:19;;;;;;;40.58;23.98;;;;;;;6.01;56.90;102270.31;4971214;28;20030;-80
2021/03/08 10:28:52;;;;;;;37.03;22.00;;;;;;;5.77;56.83;102211.72;4969042;28;20030;-84
2021/03/08 10:31:20;;;;;;;34.83;20.60;;;;;;;6.29;57.01;102256.03;4967718;28;20035;-83
2021/03/08 10:34:07;;;;;;;35.60;20.35;;;;;;;6.23;58.22;102251.28;4974345;28;20083;-86
2021/03/08 10:36:39;;;;;;;35.67;23.02;;;;;;;5.91;60.00;102259.53;4972988;28;20400;-84
2021/03/08 10:39:15;;;;;;;41.75;23.70;;;;;;;5.67;61.76;102260.53;4972690;28;20127;-84
2021/03/08 10:41:44;;;;;;;41.15;22.50;;;;;;;4.45;62.09;102082.25;4974837;28;20035;-83
2021/03/08 10:44:21;;;;;;;43.83;24.50;;;;;;;4.91;63.16;102196.84;4970848;28;20093;-86
2021/03/08 10:46:48;;;;;;;41.30;25.90;;;;;;;4.36;63.78;102146.38;4971202;28;20070;-86
2021/03/08 10:49:16;;;;;;;39.53;24.08;;;;;;;4.86;63.37;102258.75;4972475;28;20031;-87
2021/03/08 10:51:43;;;;;;;45.70;23.02;;;;;;;4.41;62.69;102151.34;4974561;28;20090;-86
2021/03/08 10:54:14;;;;;;;45.10;23.73;;;;;;;5.11;63.28;102280.69;4973676;28;20035;-88
2021/03/08 10:56:45;;;;;;;50.63;26.30;;;;;;;5.16;63.90;102275.50;4985784;28;20586;-84
2021/03/08 10:59:26;;;;;;;42.97;25.08;;;;;;;5.30;62.40;102271.19;4984317;28;20027;-85
2021/03/08 11:02:04;;;;;;;42.65;24.58;;;;;;;4.72;61.27;102164.31;4984701;28;20026;-86
2021/03/08 11:04:31;;;;;;;39.33;21.23;;;;;;;5.00;58.87;102200.41;4973362;28;20113;-86
2021/03/08 11:06:59;;;;;;;46.33;23.02;;;;;;;4.28;59.78;102077.84;4969466;28;20058;-85
2021/03/08 11:09:37;;;;;;;40.75;22.67;;;;;;;5.28;61.35;102268.59;4971286;28;20031;-84
2021/03/08 11:12:07;;;;;;;48.50;25.65;;;;;;;5.32;61.21;102267.22;4970396;28;20106;-84
2021/03/08 11:14:50;;;;;;;35.47;21.48;;;;;;;4.95;60.25;102230.28;4967276;28;20055;-88
2021/03/08 11:17:29;;;;;;;39.55;20.35;;;;;;;5.10;59.88;102268.00;4975040;28;20118;-85
2021/03/08 11:20:09;;;;;;;40.17;22.73;;;;;;;4.13;60.40;102141.63;4988505;28;20035;-86
2021/03/08 11:22:59;;;;;;;35.45;19.20;;;;;;;4.88;58.84;102273.19;4976876;28;20031;-85
2021/03/08 11:25:40;;;;;;;32.28;19.67;;;;;;;4.68;58.95;102235.13;4968558;28;20077;-84
2021/03/08 11:28:12;;;;;;;38.45;21.30;;;;;;;5.04;58.62;102262.16;4975089;28;20027;-86
2021/03/08 11:30:43;;;;;;;37.63;21.30;;;;;;;4.03;58.36;102108.06;4969036;28;20057;-88
2021/03/08 11:33:11;;;;;;;33.40;18.90;;;;;;;4.80;58.13;102279.53;4965949;28;20093;-87
2021/03/08 11:35:39;;;;;;;25.80;19.27;;;;;;;3.60;57.96;102057.06;4966495;28;20082;-84
2021/03/08 11:38:10;;;;;;;35.63;19.70;;;;;;;4.75;57.13;102249.88;4968239;28;20117;-86